Brier Hill, NY (13614)

2:46 AM EDT on March 31, 2015 (GMT -0400)
St. Lawrence River shoreline | | Change Station
CLOSE
Current Station
Personal Weather Station
Location: Brockville, ONTARIO
Elevation: 285 ft
Nearby Weather Stations

Elev 285 ft 44.54 °N, 75.76 °W | Updated 3 minutes ago

Overcast
Overcast
32.7 °F
Feels Like 33 °F
N
2.9
Wind Variable Wind from NNW
Gusts 9.0 mph

Today
High -- | Low -- °F
--% Chance of Precip.
Yesterday
High -- | Low -- °F
Precip. -- in
6:46 AM 7:28 PM
Waxing Gibbous, 85% visible
Pressure 29.79 in
Visibility 10.0 miles
Clouds Scattered Clouds 1600 ft
Mostly Cloudy 2200 ft
Overcast 3600 ft
Windchill 33 °F
Dew Point 25 °F
Humidity 72%
Rainfall 0.00 in
Snow Depth Not available.
UV 0.0 out of 12
Pollen 1.80 out of 12
Air Quality Not available.
Flu Activity Not available.
SPECI KGTB 310618Z AUTO 27004KT 10SM SCT016 BKN022 OVC036 00/M02 A2979 RMK AO2 CIG 022V036 BKN V SCT CIG 016 RWY03

More Conditions Fewer Conditions

Pressure 29.79 in
Visibility 10.0 miles
Clouds Scattered Clouds 1600 ft
Mostly Cloudy 2200 ft
Overcast 3600 ft
Windchill 33 °F
Dew Point 25 °F
Humidity 72%
Rainfall 0.00 in
Snow Depth Not available.
UV 0.0 out of 12
Pollen 1.80 out of 12
Air Quality Not available.
Flu Activity Not available.
SPECI KGTB 310618Z AUTO 27004KT 10SM SCT016 BKN022 OVC036 00/M02 A2979 RMK AO2 CIG 022V036 BKN V SCT CIG 016 RWY03

More Conditions Fewer Conditions

10-Day Weather Forecast

Almanac

Astronomy

Mar. 31, 2015 Rise Set
Actual Time
Civil Twilight
Nautical Twilight
Astronomical Twilight
Moon
Length of Visible Light
Length of Day
Tomorrow will be .
, % of the Moon is Illuminated

Today's Extremes

State Highs State Lows

Community

WunderPhotos

Upload Photos

1,809,729 photos uploaded!

WunderBlogs® & News

Nearby

Air Quality

  Air Quality AQ Index Pollutant
Not available.

Snow Depth

Station Depth Elevation

Earthquake Activity

City Distance Mag. Time & Date
Minimum magnitude displayed is 2.5.

Coastal Water Temperatures

Place Temperature

Stations

Nearby Weather Stations

Station Location Temp. Windchill Dew Point Humidity Wind Precip. Elev Updated Type